Currently 68°F in Beaumont, California, USA
68°F
70°F / 55°F
5 mph S
0.00"
Monday, March 18, 2019 5:06 PM PDT

Beaumont, California Weather Summary
Last 36 Hours

Temperature Winds Hourly Humidity Dewpoint
Time Report Norm Report Norm Max Gusts Precip. Rpt. Norm Rpt. Norm Pressure
1Mon 05:06 PM  67.8°F  65°F  5 mph S  5 mph  8 mph  0.00"  35%  40%  38°F  38°F  29.85"
Mon 05:00 PM  68.0°F  65°F  3 mph S  5 mph  10 mph  0.00"  31%  40%  35°F  39°F  29.85"
Mon 04:00 PM  69.6°F  65°F  4 mph S  6 mph  12 mph  0.00"  29%  39%  35°F  39°F  29.85"
2Mon 03:58 PM  70.0°F  65°F  3 mph S  6 mph  9 mph  ----  31%  39%  37°F  39°F  29.85"
Mon 03:00 PM  68.2°F  65°F  3 mph E  6 mph  13 mph  0.00"  29%  40%  33°F  39°F  29.86"
Mon 02:00 PM  68.2°F  65°F  5 mph SE  7 mph  13 mph  0.00"  28%  41%  33°F  39°F  29.88"
Mon 01:00 PM  67.6°F  64°F  7 mph E  7 mph  16 mph  0.00"  29%  42%  33°F  40°F  29.90"
Mon 12:00 PM  66.6°F  62°F  9 mph E  7 mph  18 mph  0.00"  27%  45%  30°F  40°F  29.92"
Mon 11:00 AM  65.5°F  61°F  13 mph SE  6 mph  18 mph  0.00"  30%  47%  32°F  39°F  29.93"
Mon 10:00 AM  64.0°F  59°F  8 mph SE  5 mph  13 mph  0.00"  34%  51%  34°F  40°F  29.93"
Mon 09:00 AM  62.1°F  56°F  4 mph E  3 mph  9 mph  0.00"  31%  55%  30°F  40°F  29.93"
Mon 08:00 AM  61.3°F  54°F  4 mph N  3 mph  12 mph  0.00"  27%  57%  26°F  38°F  29.92"
Mon 07:00 AM  57.0°F  51°F  8 mph N  3 mph  8 mph  0.00"  32%  59%  26°F  37°F  29.91"
Mon 06:00 AM  55.6°F  51°F  3 mph NW  3 mph  5 mph  0.00"  36%  59%  28°F  37°F  29.90"
Mon 05:00 AM  55.8°F  52°F  3 mph NW  3 mph  5 mph  0.00"  31%  59%  24°F  37°F  29.89"
Mon 04:00 AM  56.5°F  52°F  3 mph NW  3 mph  5 mph  0.00"  30%  60%  24°F  38°F  29.88"
Mon 03:00 AM  55.8°F  52°F  4 mph N  3 mph  5 mph  0.00"  32%  59%  25°F  38°F  29.90"
3Mon 02:38 AM  54.9°F  52°F  2 mph N  3 mph  3 mph  ----  39%  59%  29°F  38°F  29.90"
Mon 02:00 AM  56.5°F  52°F  3 mph N  3 mph  6 mph  0.00"  38%  60%  30°F  38°F  29.91"
Mon 01:00 AM  57.0°F  53°F  4 mph NW  3 mph  6 mph  0.00"  39%  60%  31°F  39°F  29.93"
Mon 12:00 AM  59.2°F  53°F  4 mph N  3 mph  8 mph  0.00"  35%  62%  30°F  40°F  29.93"
Sun 11:00 PM  60.1°F  54°F  4 mph N  3 mph  8 mph  0.00"  34%  60%  30°F  40°F  29.94"
Sun 10:00 PM  59.4°F  55°F  6 mph N  3 mph  10 mph  0.00"  38%  60%  33°F  40°F  29.94"
Sun 09:00 PM  58.3°F  56°F  3 mph NW  3 mph  13 mph  0.00"  38%  57%  32°F  40°F  29.93"
Sun 08:00 PM  61.0°F  58°F  7 mph NE  5 mph  12 mph  0.00"  34%  54%  31°F  40°F  29.91"
Sun 07:00 PM  62.2°F  60°F  2 mph E  4 mph  12 mph  0.00"  34%  49%  32°F  40°F  29.91"
Sun 06:00 PM  65.8°F  63°F  7 mph NE  4 mph  15 mph  0.00"  28%  43%  30°F  39°F  29.90"
Sun 05:00 PM  66.7°F  65°F  8 mph SE  6 mph  18 mph  0.00"  29%  40%  32°F  39°F  29.90"
Sun 04:00 PM  66.9°F  65°F  9 mph E  6 mph  20 mph  0.00"  28%  39%  31°F  39°F  29.90"
Sun 03:00 PM  66.6°F  66°F  13 mph E  6 mph  25 mph  0.00"  29%  39%  32°F  39°F  29.91"
Sun 02:00 PM  66.4°F  65°F  14 mph E  7 mph  24 mph  0.00"  30%  40%  33°F  39°F  29.94"
Sun 01:00 PM  65.7°F  64°F  15 mph E  7 mph  24 mph  0.00"  31%  42%  33°F  40°F  29.96"
Sun 12:00 PM  65.7°F  63°F  12 mph E  7 mph  22 mph  0.00"  32%  44%  34°F  40°F  29.97"
Sun 11:00 AM  64.4°F  61°F  10 mph E  6 mph  15 mph  0.00"  31%  46%  32°F  39°F  29.99"
Sun 10:00 AM  62.4°F  59°F  10 mph E  5 mph  17 mph  0.00"  34%  50%  33°F  39°F  29.98"
Sun 09:00 AM  61.0°F  57°F  2 mph E  3 mph  9 mph  0.00"  34%  53%  31°F  39°F  29.98"
Sun 08:00 AM  58.6°F  54°F  3 mph NE  3 mph  14 mph  0.00"  35%  56%  30°F  38°F  29.98"
Sun 07:00 AM  57.7°F  51°F  7 mph N  3 mph  13 mph  0.00"  32%  57%  27°F  36°F  29.97"
Sun 06:00 AM  56.5°F  52°F  4 mph N  3 mph  10 mph  0.00"  35%  57%  28°F  36°F  29.96"

  1. Current weather data. No green row appears if the current weather data is also the high or low for the current day.
  2. High temperature for the current day.
  3. Low temperature for the current day.

The Beaumont, California weather pages are a service of WeatherCurrents. Cherry Valley is located in northern Riverside County, California, a community of the northern part of Beaumont, along the Interstate 10 highway, in the San Gorgonio pass area, between the communities of Calimesa, Banning.
Copyright ©Mon Mar 18 17:09:51 PDT 2019  WeatherCurrents. All rights reserved. - Submit questions and comments - Privacy Policy

This page automatically refreshes every 10 minutes.